Time;durP1;ratioP1;P1;durP2;ratioP2;P2;SDS_P1;SDS_P2;PMS_P1;PMS_P2;Temp;Humidity;BMP_temperature;BMP_pressure;BME280_temperature;BME280_humidity;BME280_pressure;Samples;Min_cycle;Max_cycle;Signal;HPM_P1;HPM_P2
2022/01/01 00:00:33;;;;;;;7.10;4.30;;;;;;;8.47;97.23;96572.16;107340;1271;46195;-75
2022/01/01 00:03:11;;;;;;;7.40;4.50;;;;;;;8.45;97.50;96573.95;107268;1274;41677;-75
2022/01/01 00:05:42;;;;;;;7.50;4.50;;;;;;;8.43;97.66;96570.14;107327;1271;42476;-75
2022/01/01 00:08:13;;;;;;;7.60;4.80;;;;;;;8.45;97.95;96569.36;107334;1272;40186;-75
2022/01/01 00:10:44;;;;;;;7.60;4.70;;;;;;;8.43;98.14;96571.40;107364;1272;33881;-75
2022/01/01 00:13:16;;;;;;;9.10;5.70;;;;;;;8.43;98.30;96575.31;107280;1272;41351;-75
2022/01/01 00:15:47;;;;;;;8.50;4.70;;;;;;;8.45;98.55;96573.02;107305;1274;42575;-74
2022/01/01 00:18:18;;;;;;;6.80;4.00;;;;;;;8.45;98.63;96573.38;107339;1271;42958;-75
2022/01/01 00:20:49;;;;;;;6.80;3.90;;;;;;;8.45;98.89;96569.78;107379;1272;36036;-75
2022/01/01 00:23:20;;;;;;;9.00;4.50;;;;;;;8.46;99.19;96569.41;107361;1271;42333;-75
2022/01/01 00:25:51;;;;;;;8.70;3.80;;;;;;;8.48;99.55;96572.00;107374;1271;40903;-74
2022/01/01 00:28:22;;;;;;;6.00;3.50;;;;;;;8.50;99.72;96572.16;107362;1272;30721;-74
2022/01/01 00:30:53;;;;;;;7.20;4.40;;;;;;;8.49;99.99;96578.45;107344;1271;30989;-75
2022/01/01 00:33:25;;;;;;;5.60;3.30;;;;;;;8.47;99.97;96579.93;107384;1271;33763;-75
2022/01/01 00:35:55;;;;;;;6.40;3.60;;;;;;;8.46;100.00;96584.05;107378;1271;34042;-74
2022/01/01 00:38:27;;;;;;;4.00;2.40;;;;;;;8.46;100.00;96580.83;107430;1271;36488;-75
2022/01/01 00:40:58;;;;;;;5.70;3.20;;;;;;;8.47;100.00;96585.16;107323;1273;33169;-75
2022/01/01 00:43:30;;;;;;;4.30;3.00;;;;;;;8.49;100.00;96587.53;107444;1271;43398;-74
2022/01/01 00:46:01;;;;;;;4.20;2.50;;;;;;;8.50;100.00;96588.96;107325;1271;37653;-75
2022/01/01 00:48:33;;;;;;;3.40;2.50;;;;;;;8.49;100.00;96583.52;107530;1268;43468;-75
2022/01/01 00:51:04;;;;;;;4.70;2.80;;;;;;;8.49;100.00;96589.48;107584;1268;29795;-75
2022/01/01 00:53:35;;;;;;;3.30;2.00;;;;;;;8.48;100.00;96595.04;107597;1268;32192;-75
2022/01/01 00:56:06;;;;;;;3.40;2.30;;;;;;;8.47;100.00;96587.48;107494;1268;45301;-75
2022/01/01 00:58:37;;;;;;;4.20;2.70;;;;;;;8.48;100.00;96589.12;107597;1268;42302;-75
2022/01/01 01:01:08;;;;;;;3.40;2.30;;;;;;;8.53;100.00;96595.02;107576;1268;32814;-75
2022/01/01 01:03:39;;;;;;;3.60;2.10;;;;;;;8.57;100.00;96590.79;107593;1268;51503;-75
2022/01/01 01:06:12;;;;;;;3.60;2.20;;;;;;;8.59;100.00;96602.64;107626;1267;34638;-75
2022/01/01 01:08:43;;;;;;;3.50;2.50;;;;;;;8.57;100.00;96593.54;107670;1268;41822;-75
2022/01/01 01:11:14;;;;;;;4.50;2.00;;;;;;;8.58;100.00;96596.55;107561;1270;44383;-75
2022/01/01 01:13:55;;;;;;;3.00;2.00;;;;;;;8.64;100.00;96602.00;107599;1268;45007;-75
2022/01/01 01:16:27;;;;;;;2.50;1.50;;;;;;;8.67;100.00;96597.81;107679;1268;44492;-75
2022/01/01 01:18:58;;;;;;;3.60;2.50;;;;;;;8.70;100.00;96597.33;107696;1268;40428;-75
2022/01/01 01:21:29;;;;;;;2.80;1.80;;;;;;;8.72;100.00;96594.48;107628;1268;47918;-74
2022/01/01 01:24:01;;;;;;;3.20;1.60;;;;;;;8.73;100.00;96596.19;107675;1266;44317;-75
2022/01/01 01:26:32;;;;;;;3.60;2.10;;;;;;;8.72;100.00;96596.64;107676;1268;31089;-75
2022/01/01 01:29:04;;;;;;;3.60;2.00;;;;;;;8.72;100.00;96594.42;107530;1268;53659;-75
2022/01/01 01:31:35;;;;;;;3.40;1.90;;;;;;;8.72;100.00;96599.98;107571;1268;47200;-75
2022/01/01 01:34:06;;;;;;;3.20;1.90;;;;;;;8.75;100.00;96605.86;107611;1268;35943;-75
2022/01/01 01:36:38;;;;;;;2.40;1.80;;;;;;;8.74;100.00;96606.49;107585;1265;44183;-75
2022/01/01 01:39:09;;;;;;;2.60;1.90;;;;;;;8.77;100.00;96606.42;107714;1267;31192;-75
2022/01/01 01:41:42;;;;;;;4.00;1.90;;;;;;;8.78;100.00;96607.39;107587;1267;41706;-75
2022/01/01 01:44:29;;;;;;;2.40;1.60;;;;;;;8.79;100.00;96611.71;107423;1270;34843;-75
2022/01/01 01:47:03;;;;;;;2.50;1.80;;;;;;;8.80;100.00;96601.40;107514;1270;35508;-75
2022/01/01 01:49:34;;;;;;;2.60;1.80;;;;;;;8.78;100.00;96609.49;107607;1268;33355;-75
2022/01/01 01:52:06;;;;;;;2.70;1.60;;;;;;;8.78;100.00;96603.95;107559;1268;46204;-75
2022/01/01 01:54:37;;;;;;;3.20;2.10;;;;;;;8.83;100.00;96602.66;107612;1267;47409;-75
2022/01/01 01:57:09;;;;;;;3.50;2.40;;;;;;;8.86;100.00;96607.59;107618;1267;39545;-75
2022/01/01 01:59:41;;;;;;;3.00;2.00;;;;;;;8.86;100.00;96618.20;107570;1270;40399;-75
2022/01/01 02:02:12;;;;;;;4.70;2.50;;;;;;;8.85;100.00;96618.88;107630;1268;42147;-75
2022/01/01 02:04:43;;;;;;;3.50;2.10;;;;;;;8.84;100.00;96625.70;107568;1268;42138;-75
2022/01/01 02:07:15;;;;;;;3.40;1.80;;;;;;;8.84;100.00;96623.65;107584;1268;32009;-75
2022/01/01 02:09:46;;;;;;;4.40;3.00;;;;;;;8.85;100.00;96630.30;107440;1270;42712;-75
2022/01/01 02:12:17;;;;;;;3.80;2.70;;;;;;;8.87;100.00;96632.11;107617;1268;33500;-75
2022/01/01 02:15:08;;;;;;;5.00;2.50;;;;;;;8.88;100.00;96631.59;107605;1269;35352;-75
2022/01/01 02:17:39;;;;;;;3.80;2.40;;;;;;;8.92;100.00;96634.91;107509;1270;41152;-75
2022/01/01 02:20:18;;;;;;;4.60;2.80;;;;;;;8.95;100.00;96645.63;107566;1268;47627;-75
2022/01/01 02:22:50;;;;;;;5.40;2.80;;;;;;;8.95;100.00;96656.42;107613;1267;44932;-75
2022/01/01 02:25:22;;;;;;;5.80;3.60;;;;;;;8.95;100.00;96656.21;107703;1268;51735;-75
2022/01/01 02:27:53;;;;;;;6.10;3.60;;;;;;;8.96;100.00;96659.42;107569;1267;43007;-75
2022/01/01 02:30:26;;;;;;;8.50;5.70;;;;;;;8.97;100.00;96660.44;107563;1268;47551;-75
2022/01/01 02:32:58;;;;;;;6.90;4.00;;;;;;;8.98;100.00;96657.63;107603;1270;43373;-74
2022/01/01 02:35:29;;;;;;;6.50;4.70;;;;;;;8.94;100.00;96661.50;107557;1270;41990;-74
2022/01/01 02:38:00;;;;;;;6.80;4.30;;;;;;;8.92;100.00;96663.30;107655;1268;34090;-75
2022/01/01 02:40:31;;;;;;;6.00;3.90;;;;;;;8.94;100.00;96663.89;107634;1268;42848;-75
2022/01/01 02:43:02;;;;;;;6.30;4.10;;;;;;;9.00;100.00;96664.23;107629;1268;46513;-75
2022/01/01 02:45:33;;;;;;;7.30;4.70;;;;;;;9.04;100.00;96661.45;107573;1270;36858;-74
2022/01/01 02:48:04;;;;;;;6.10;4.10;;;;;;;9.03;100.00;96662.71;107592;1268;33866;-74
2022/01/01 02:50:35;;;;;;;9.90;5.60;;;;;;;9.04;100.00;96669.91;107544;1270;42397;-74
2022/01/01 02:53:14;;;;;;;5.90;4.00;;;;;;;9.09;100.00;96657.56;107569;1268;43000;-75
2022/01/01 02:55:47;;;;;;;5.40;4.10;;;;;;;9.11;100.00;96692.05;107607;1268;45491;-74
2022/01/01 02:58:18;;;;;;;5.90;3.90;;;;;;;9.10;100.00;96680.10;107674;1267;33944;-74
2022/01/01 03:00:49;;;;;;;6.90;5.00;;;;;;;9.08;100.00;96683.11;107671;1268;40742;-74
2022/01/01 03:03:20;;;;;;;5.30;3.90;;;;;;;9.05;100.00;96675.77;107573;1268;44374;-74
2022/01/01 03:05:51;;;;;;;7.40;4.70;;;;;;;9.07;100.00;96691.38;107631;1268;41662;-74
2022/01/01 03:08:21;;;;;;;6.80;3.70;;;;;;;9.04;100.00;96685.20;107583;1268;43282;-74
2022/01/01 03:10:52;;;;;;;7.80;3.40;;;;;;;9.04;100.00;96691.06;107606;1268;38802;-74
2022/01/01 03:13:24;;;;;;;6.20;3.60;;;;;;;9.05;100.00;96687.30;107545;1268;43885;-74
2022/01/01 03:15:54;;;;;;;5.00;2.90;;;;;;;9.04;100.00;96689.69;107627;1270;32321;-74
2022/01/01 03:18:26;;;;;;;4.30;2.60;;;;;;;9.04;100.00;96671.03;107575;1268;28748;-74
2022/01/01 03:20:56;;;;;;;3.80;2.10;;;;;;;9.08;100.00;96681.59;107691;1268;38324;-74
2022/01/01 03:23:27;;;;;;;5.20;2.10;;;;;;;9.06;100.00;96671.33;107666;1268;29873;-74
2022/01/01 03:25:59;;;;;;;3.50;1.80;;;;;;;9.07;100.00;96691.73;107703;1268;43504;-74
2022/01/01 03:28:30;;;;;;;2.70;1.40;;;;;;;9.08;100.00;96687.09;107763;1268;41097;-74
2022/01/01 03:31:01;;;;;;;4.10;2.10;;;;;;;9.09;100.00;96686.77;107662;1268;41777;-75
2022/01/01 03:33:32;;;;;;;2.80;2.30;;;;;;;9.07;100.00;96707.24;107534;1268;46412;-75
2022/01/01 03:36:03;;;;;;;3.80;2.00;;;;;;;9.05;100.00;96717.61;107643;1268;41583;-75
2022/01/01 03:38:34;;;;;;;3.60;2.30;;;;;;;9.08;100.00;96703.64;107663;1267;41504;-74
2022/01/01 03:41:05;;;;;;;3.20;2.10;;;;;;;9.05;100.00;96708.04;107644;1267;47857;-74
2022/01/01 03:43:36;;;;;;;3.30;2.20;;;;;;;9.03;100.00;96712.96;107571;1268;38577;-74
2022/01/01 03:46:07;;;;;;;2.80;2.10;;;;;;;9.02;100.00;96712.27;107611;1268;37882;-74
2022/01/01 03:48:37;;;;;;;3.60;2.00;;;;;;;9.03;100.00;96710.95;107582;1270;36614;-74
2022/01/01 03:51:08;;;;;;;5.80;2.40;;;;;;;9.02;100.00;96719.67;107590;1268;31946;-74
2022/01/01 03:53:39;;;;;;;2.80;1.50;;;;;;;9.01;100.00;96725.38;107671;1268;33014;-74
2022/01/01 03:56:11;;;;;;;2.60;2.00;;;;;;;9.04;100.00;96724.59;107658;1268;46872;-74
2022/01/01 03:58:42;;;;;;;2.90;1.70;;;;;;;9.07;100.00;96718.30;107644;1268;38542;-74
2022/01/01 04:01:13;;;;;;;3.70;1.20;;;;;;;9.11;100.00;96737.11;107528;1270;41612;-74
2022/01/01 04:03:44;;;;;;;3.30;2.10;;;;;;;9.15;100.00;96719.41;107551;1270;48229;-74
2022/01/01 04:06:15;;;;;;;2.60;1.50;;;;;;;9.18;100.00;96744.42;107650;1268;30776;-74
2022/01/01 04:08:46;;;;;;;2.40;1.50;;;;;;;9.16;100.00;96755.33;107603;1270;35415;-75
2022/01/01 04:11:17;;;;;;;3.10;1.60;;;;;;;9.17;100.00;96747.87;107712;1268;34250;-74
2022/01/01 04:13:47;;;;;;;4.30;1.70;;;;;;;9.19;100.00;96748.55;107633;1268;43091;-74
2022/01/01 04:16:19;;;;;;;3.50;1.80;;;;;;;9.18;100.00;96740.25;107545;1268;48834;-74
2022/01/01 04:18:50;;;;;;;4.80;3.00;;;;;;;9.19;100.00;96758.13;107566;1268;36564;-74
2022/01/01 04:21:20;;;;;;;2.70;1.40;;;;;;;9.19;100.00;96757.91;107594;1268;39315;-74
2022/01/01 04:23:51;;;;;;;4.00;2.00;;;;;;;9.15;100.00;96771.09;107659;1268;41037;-74
2022/01/01 04:26:23;;;;;;;3.80;2.10;;;;;;;9.15;100.00;96763.48;107596;1270;42716;-74
2022/01/01 04:28:55;;;;;;;4.40;1.90;;;;;;;9.14;100.00;96762.57;107597;1268;43912;-74
2022/01/01 04:31:25;;;;;;;3.30;1.90;;;;;;;9.15;100.00;96757.54;107673;1268;34544;-74
2022/01/01 04:33:56;;;;;;;3.90;1.90;;;;;;;9.18;100.00;96757.55;107633;1268;33308;-74
2022/01/01 04:36:27;;;;;;;1.10;1.00;;;;;;;9.18;100.00;96758.92;107642;1268;39031;-74
2022/01/01 04:38:58;;;;;;;3.50;1.30;;;;;;;9.19;100.00;96775.05;107677;1268;41568;-74
2022/01/01 04:41:29;;;;;;;1.40;1.20;;;;;;;9.16;100.00;96761.99;107674;1268;46359;-74
2022/01/01 04:44:01;;;;;;;1.90;1.20;;;;;;;9.13;100.00;96770.16;107709;1268;47322;-74
2022/01/01 04:46:32;;;;;;;2.40;1.30;;;;;;;9.10;100.00;96782.23;107611;1268;42679;-75
2022/01/01 04:49:03;;;;;;;1.80;1.50;;;;;;;9.05;100.00;96779.65;107624;1268;33515;-75
2022/01/01 04:51:33;;;;;;;1.30;1.20;;;;;;;9.06;100.00;96777.02;107672;1268;43715;-74
2022/01/01 04:54:10;;;;;;;3.30;1.20;;;;;;;9.05;100.00;96784.41;107580;1268;43193;-74
2022/01/01 04:56:43;;;;;;;1.10;1.00;;;;;;;9.09;100.00;96780.54;107664;1268;32867;-74
2022/01/01 04:59:15;;;;;;;1.20;0.90;;;;;;;9.14;100.00;96790.54;107673;1267;43188;-74
2022/01/01 05:01:46;;;;;;;1.50;1.20;;;;;;;9.09;100.00;96781.40;107648;1267;34603;-74
2022/01/01 05:04:17;;;;;;;1.80;1.40;;;;;;;9.10;100.00;96786.15;107593;1271;35123;-74
2022/01/01 05:06:49;;;;;;;2.40;1.00;;;;;;;9.06;100.00;96797.64;107639;1268;30958;-74
2022/01/01 05:09:21;;;;;;;2.10;0.80;;;;;;;9.02;100.00;96793.56;107626;1271;35083;-74
2022/01/01 05:11:52;;;;;;;1.00;0.90;;;;;;;9.01;100.00;96795.45;107662;1268;47963;-74
2022/01/01 05:14:23;;;;;;;1.30;1.00;;;;;;;9.06;100.00;96791.71;107598;1268;37576;-74
2022/01/01 05:16:54;;;;;;;1.40;1.20;;;;;;;9.10;100.00;96806.67;107530;1270;45227;-74
2022/01/01 05:19:24;;;;;;;1.80;1.30;;;;;;;9.10;100.00;96803.34;107629;1268;32563;-74
2022/01/01 05:21:56;;;;;;;3.10;1.20;;;;;;;9.08;100.00;96802.34;107669;1268;40513;-74
2022/01/01 05:24:26;;;;;;;3.00;1.60;;;;;;;9.12;100.00;96801.06;107678;1271;39704;-74
2022/01/01 05:26:57;;;;;;;2.60;1.40;;;;;;;9.12;100.00;96801.38;107728;1268;42808;-74
2022/01/01 05:29:28;;;;;;;3.30;1.70;;;;;;;9.16;100.00;96792.77;107736;1268;32449;-74
2022/01/01 05:31:59;;;;;;;3.10;1.70;;;;;;;9.19;100.00;96804.36;107622;1268;42314;-74
2022/01/01 05:34:30;;;;;;;2.40;1.80;;;;;;;9.17;100.00;96799.23;107721;1268;33609;-74
2022/01/01 05:37:00;;;;;;;2.20;1.40;;;;;;;9.16;100.00;96798.48;107677;1268;42961;-74
2022/01/01 05:39:31;;;;;;;1.70;1.40;;;;;;;9.16;100.00;96799.02;107587;1268;35667;-74
2022/01/01 05:42:02;;;;;;;2.80;1.50;;;;;;;9.15;100.00;96805.63;107660;1268;30701;-75
2022/01/01 05:44:33;;;;;;;2.00;1.30;;;;;;;9.14;100.00;96812.75;107666;1268;33597;-74
2022/01/01 05:47:05;;;;;;;2.00;1.50;;;;;;;9.13;100.00;96820.90;107568;1268;51619;-75
2022/01/01 05:49:36;;;;;;;1.10;1.00;;;;;;;9.11;100.00;96823.81;107590;1268;36944;-75
2022/01/01 05:52:12;;;;;;;1.20;1.10;;;;;;;9.12;100.00;96825.17;107576;1268;41924;-75
2022/01/01 05:54:43;;;;;;;2.00;1.40;;;;;;;9.16;100.00;96833.88;107631;1268;40370;-74
2022/01/01 05:57:14;;;;;;;2.30;1.20;;;;;;;9.18;100.00;96829.50;107647;1267;36792;-74
2022/01/01 05:59:45;;;;;;;1.70;1.40;;;;;;;9.23;100.00;96841.44;107617;1268;41948;-74
2022/01/01 06:02:16;;;;;;;1.70;1.60;;;;;;;9.24;100.00;96847.57;107693;1268;31368;-74
2022/01/01 06:04:47;;;;;;;1.20;1.10;;;;;;;9.21;100.00;96846.41;107628;1268;35622;-74
2022/01/01 06:07:18;;;;;;;1.50;1.00;;;;;;;9.20;100.00;96840.07;107547;1268;37825;-74
2022/01/01 06:09:49;;;;;;;1.50;1.30;;;;;;;9.16;100.00;96844.93;107657;1268;41648;-74
2022/01/01 06:12:20;;;;;;;2.00;1.10;;;;;;;9.13;100.00;96841.20;107705;1268;40713;-74
2022/01/01 06:14:51;;;;;;;2.40;1.50;;;;;;;9.16;100.00;96839.38;107587;1268;44547;-74
2022/01/01 06:17:22;;;;;;;1.90;1.50;;;;;;;9.17;100.00;96845.16;107613;1268;40347;-74
2022/01/01 06:19:52;;;;;;;1.40;1.20;;;;;;;9.17;100.00;96849.02;107620;1268;31501;-74
2022/01/01 06:22:24;;;;;;;1.70;1.40;;;;;;;9.20;100.00;96854.35;107716;1268;40175;-74
2022/01/01 06:24:54;;;;;;;1.70;0.80;;;;;;;9.23;100.00;96847.15;107619;1268;45227;-75
2022/01/01 06:27:25;;;;;;;3.10;1.10;;;;;;;9.27;100.00;96842.60;107539;1268;43140;-74
2022/01/01 06:29:56;;;;;;;1.20;1.00;;;;;;;9.27;100.00;96848.10;107732;1268;31927;-74
2022/01/01 06:32:27;;;;;;;1.40;1.10;;;;;;;9.25;100.00;96848.58;107583;1271;37845;-74
2022/01/01 06:34:58;;;;;;;2.60;1.30;;;;;;;9.23;100.00;96856.58;107635;1268;31909;-74
2022/01/01 06:37:28;;;;;;;1.60;1.10;;;;;;;9.21;100.00;96852.98;107732;1268;32962;-74
2022/01/01 06:39:59;;;;;;;0.80;0.80;;;;;;;9.19;100.00;96856.73;107616;1268;54223;-74
2022/01/01 06:42:30;;;;;;;1.90;1.10;;;;;;;9.19;100.00;96856.69;107724;1268;29624;-75
2022/01/01 06:45:01;;;;;;;2.30;1.30;;;;;;;9.15;100.00;96862.34;107695;1268;38546;-74
2022/01/01 06:47:32;;;;;;;0.60;0.50;;;;;;;9.13;100.00;96866.28;107623;1268;45337;-75
2022/01/01 06:50:03;;;;;;;0.80;0.40;;;;;;;9.15;100.00;96861.66;107570;1268;41833;-75
2022/01/01 06:52:42;;;;;;;0.30;0.30;;;;;;;9.19;100.00;96882.45;107620;1268;42873;-74
2022/01/01 06:55:16;;;;;;;0.40;0.40;;;;;;;9.23;100.00;96878.00;107603;1268;44845;-74
2022/01/01 06:57:47;;;;;;;1.10;0.80;;;;;;;9.28;100.00;96883.08;107625;1268;37462;-74
2022/01/01 07:00:19;;;;;;;0.80;0.60;;;;;;;9.28;100.00;96884.87;107575;1268;32321;-74
2022/01/01 07:02:50;;;;;;;1.20;0.60;;;;;;;9.27;100.00;96883.97;107607;1268;44089;-74
2022/01/01 07:05:20;;;;;;;0.40;0.30;;;;;;;9.29;100.00;96896.26;107627;1268;41157;-74
2022/01/01 07:07:51;;;;;;;1.30;0.60;;;;;;;9.27;100.00;96894.40;107564;1268;39445;-74
2022/01/01 07:10:22;;;;;;;1.20;0.80;;;;;;;9.29;100.00;96905.69;107592;1268;40250;-75
2022/01/01 07:12:53;;;;;;;0.80;0.70;;;;;;;9.33;100.00;96901.62;107636;1268;29668;-74
2022/01/01 07:15:24;;;;;;;1.30;0.80;;;;;;;9.35;100.00;96906.95;107627;1268;47413;-75
2022/01/01 07:17:55;;;;;;;1.50;0.70;;;;;;;9.35;100.00;96912.63;107608;1268;46577;-74
2022/01/01 07:20:26;;;;;;;1.70;1.20;;;;;;;9.34;100.00;96918.66;107492;1268;42894;-74
2022/01/01 07:22:57;;;;;;;0.80;0.60;;;;;;;9.39;100.00;96886.00;107629;1268;43401;-74
2022/01/01 07:25:29;;;;;;;1.50;0.70;;;;;;;9.47;100.00;96909.15;107699;1265;39231;-74
2022/01/01 07:28:00;;;;;;;1.40;0.80;;;;;;;9.44;100.00;96901.27;107669;1268;30477;-74
2022/01/01 07:30:31;;;;;;;1.70;0.90;;;;;;;9.41;100.00;96919.41;107592;1268;42499;-74
2022/01/01 07:33:02;;;;;;;3.90;1.00;;;;;;;9.38;100.00;96914.42;107540;1268;45552;-75
2022/01/01 07:35:36;;;;;;;1.80;0.70;;;;;;;9.32;100.00;96925.21;107553;1268;38750;-76
2022/01/01 07:38:08;;;;;;;1.10;1.00;;;;;;;9.31;100.00;96931.98;107537;1268;43037;-74
2022/01/01 07:40:39;;;;;;;1.60;0.90;;;;;;;9.33;100.00;96928.13;107592;1268;31188;-75
2022/01/01 07:43:14;;;;;;;1.80;1.20;;;;;;;9.35;100.00;96931.36;107447;1268;53697;-75
2022/01/01 07:45:46;;;;;;;9.90;6.70;;;;;;;9.35;100.00;96925.59;107656;1268;39228;-74
2022/01/01 07:48:17;;;;;;;3.40;2.00;;;;;;;9.36;100.00;96937.08;107660;1268;41967;-74
2022/01/01 07:50:48;;;;;;;2.10;1.30;;;;;;;9.35;100.00;96926.23;107595;1268;43980;-74
2022/01/01 07:53:19;;;;;;;2.80;2.00;;;;;;;9.34;100.00;96927.60;107540;1268;43102;-74
2022/01/01 07:55:50;;;;;;;3.80;2.80;;;;;;;9.33;100.00;96937.50;107497;1268;44416;-74
2022/01/01 07:58:21;;;;;;;4.50;2.70;;;;;;;9.34;100.00;96940.30;107565;1268;37135;-74
2022/01/01 08:00:52;;;;;;;4.10;2.80;;;;;;;9.33;100.00;96929.36;107700;1268;41992;-74
2022/01/01 08:03:23;;;;;;;5.40;3.40;;;;;;;9.34;100.00;96944.38;107533;1268;50144;-74
2022/01/01 08:05:54;;;;;;;4.10;2.60;;;;;;;9.31;100.00;96937.02;107550;1268;44898;-74
2022/01/01 08:08:25;;;;;;;7.80;3.00;;;;;;;9.29;100.00;96932.39;107616;1268;35139;-74
2022/01/01 08:10:58;;;;;;;4.60;3.10;;;;;;;9.29;100.00;96951.56;107594;1268;31318;-74
2022/01/01 08:13:35;;;;;;;4.10;3.00;;;;;;;9.30;100.00;96939.24;107663;1268;30508;-74
2022/01/01 08:16:09;;;;;;;6.10;4.00;;;;;;;9.30;100.00;96949.35;107556;1267;29075;-74
2022/01/01 08:18:40;;;;;;;4.20;3.00;;;;;;;9.28;100.00;96950.81;107550;1268;40881;-74
2022/01/01 08:21:10;;;;;;;3.90;2.50;;;;;;;9.29;100.00;96951.40;107583;1268;45426;-74
2022/01/01 08:23:41;;;;;;;5.30;3.40;;;;;;;9.27;100.00;96964.35;107526;1268;45583;-74
2022/01/01 08:26:13;;;;;;;4.60;3.10;;;;;;;9.28;100.00;96950.96;107546;1268;42100;-74
2022/01/01 08:28:44;;;;;;;4.60;2.70;;;;;;;9.33;100.00;96932.94;107562;1268;46405;-74
2022/01/01 08:31:15;;;;;;;4.40;2.90;;;;;;;9.36;100.00;96946.28;107676;1267;34474;-74
2022/01/01 08:33:46;;;;;;;3.50;1.80;;;;;;;9.38;100.00;96966.81;107554;1267;41372;-74
2022/01/01 08:36:17;;;;;;;3.10;2.20;;;;;;;9.36;100.00;96965.02;107542;1268;32892;-74
2022/01/01 08:38:48;;;;;;;2.70;2.10;;;;;;;9.40;100.00;96968.66;107651;1268;35326;-74
2022/01/01 08:41:18;;;;;;;4.70;2.80;;;;;;;9.42;99.96;96964.38;107589;1268;28735;-74
2022/01/01 08:43:49;;;;;;;2.20;1.70;;;;;;;9.39;99.92;96967.23;107627;1268;29669;-74
2022/01/01 08:46:20;;;;;;;2.80;2.10;;;;;;;9.39;100.00;96961.63;107689;1267;36350;-74
2022/01/01 08:48:51;;;;;;;3.00;2.10;;;;;;;9.41;99.99;96970.25;107636;1268;43257;-74
2022/01/01 08:51:24;;;;;;;3.00;2.00;;;;;;;9.42;99.92;96970.84;107660;1268;40660;-74
2022/01/01 08:53:56;;;;;;;3.60;1.70;;;;;;;9.43;99.80;96973.13;107596;1268;44575;-74
2022/01/01 08:56:27;;;;;;;2.60;1.80;;;;;;;9.46;99.55;96972.61;107714;1268;42875;-73
2022/01/01 08:58:58;;;;;;;3.90;1.80;;;;;;;9.47;99.29;96977.16;107732;1268;41465;-74
2022/01/01 09:01:29;;;;;;;3.90;2.40;;;;;;;9.46;99.19;96992.89;107707;1268;35782;-74
2022/01/01 09:04:01;;;;;;;6.80;2.20;;;;;;;9.43;99.36;96983.86;107677;1268;31454;-74
2022/01/01 09:06:32;;;;;;;2.00;1.30;;;;;;;9.40;99.51;96999.36;107616;1268;39119;-74
2022/01/01 09:09:03;;;;;;;1.70;1.10;;;;;;;9.39;99.65;96993.96;107621;1268;44931;-75
2022/01/01 09:11:34;;;;;;;2.50;1.30;;;;;;;9.36;99.87;96995.86;107632;1267;42462;-74
2022/01/01 09:14:05;;;;;;;2.40;1.70;;;;;;;9.41;99.98;96988.83;107646;1268;63139;-74
2022/01/01 09:16:36;;;;;;;1.60;1.20;;;;;;;9.44;99.88;96987.64;107613;1268;52105;-74
2022/01/01 09:19:07;;;;;;;2.50;1.40;;;;;;;9.44;99.64;96990.70;107595;1268;45682;-74
2022/01/01 09:21:39;;;;;;;2.00;1.30;;;;;;;9.46;99.34;96993.09;107687;1268;36730;-74
2022/01/01 09:24:10;;;;;;;2.60;1.40;;;;;;;9.49;99.23;96986.95;107595;1267;46780;-74
2022/01/01 09:26:44;;;;;;;2.60;1.20;;;;;;;9.49;99.14;96991.29;107598;1268;44253;-74
2022/01/01 09:29:15;;;;;;;2.90;1.70;;;;;;;9.47;99.09;96987.75;107613;1268;41888;-74
2022/01/01 09:31:46;;;;;;;3.00;1.70;;;;;;;9.43;99.23;96994.40;107637;1268;77264;-74
2022/01/01 09:34:17;;;;;;;1.40;1.10;;;;;;;9.39;99.48;96992.22;107508;1268;45729;-74
2022/01/01 09:36:49;;;;;;;2.00;1.30;;;;;;;9.37;99.65;96986.34;107455;1268;80748;-74
2022/01/01 09:39:21;;;;;;;3.30;1.00;;;;;;;9.39;99.73;96990.41;107674;1268;29917;-74
2022/01/01 09:41:52;;;;;;;2.00;1.00;;;;;;;9.41;99.67;96989.36;107645;1267;40761;-75
2022/01/01 09:44:24;;;;;;;1.00;0.80;;;;;;;9.42;99.57;97003.60;107615;1268;31242;-74
2022/01/01 09:46:55;;;;;;;1.00;0.70;;;;;;;9.42;99.63;96999.09;107573;1268;38527;-74
2022/01/01 09:49:26;;;;;;;2.20;1.00;;;;;;;9.40;99.73;97004.97;107572;1268;43218;-74
2022/01/01 09:51:57;;;;;;;1.90;0.70;;;;;;;9.36;99.99;97009.73;107646;1268;44264;-74
2022/01/01 09:54:30;;;;;;;2.00;1.20;;;;;;;9.33;100.00;97007.19;107633;1268;46086;-74
2022/01/01 09:57:01;;;;;;;2.30;0.70;;;;;;;9.29;100.00;97011.35;107939;1267;33326;-74
2022/01/01 09:59:33;;;;;;;1.20;1.00;;;;;;;9.27;100.00;97019.70;107656;1268;36959;-75
2022/01/01 10:02:05;;;;;;;1.50;1.00;;;;;;;9.28;100.00;97020.16;107614;1268;47368;-75
2022/01/01 10:04:44;;;;;;;2.20;1.50;;;;;;;9.27;100.00;97015.14;107670;1268;32090;-74
2022/01/01 10:07:16;;;;;;;2.20;1.10;;;;;;;9.25;100.00;97018.68;107617;1268;35308;-74
2022/01/01 10:09:47;;;;;;;2.40;1.40;;;;;;;9.24;100.00;97022.55;107630;1268;51986;-74
2022/01/01 10:12:20;;;;;;;1.80;1.50;;;;;;;9.25;100.00;97027.09;107513;1268;38169;-74
2022/01/01 10:14:51;;;;;;;2.40;1.90;;;;;;;9.26;100.00;97033.39;107650;1268;44265;-74
2022/01/01 10:17:24;;;;;;;3.00;2.20;;;;;;;9.24;100.00;97029.05;107695;1267;38806;-75
2022/01/01 10:19:55;;;;;;;3.10;2.10;;;;;;;9.26;100.00;97009.32;107589;1268;38473;-74
2022/01/01 10:22:27;;;;;;;4.80;2.50;;;;;;;9.30;100.00;97019.23;107592;1268;45100;-74
2022/01/01 10:27:59;;;;;;;1.90;1.30;;;;;;;9.39;99.80;97018.26;107575;1268;36585;-74
2022/01/01 10:30:36;;;;;;;2.90;1.50;;;;;;;9.39;99.59;97014.13;107783;1268;33562;-74
2022/01/01 10:33:10;;;;;;;3.10;1.80;;;;;;;9.38;99.37;97009.68;107681;1268;39178;-75
2022/01/01 10:35:43;;;;;;;4.00;2.00;;;;;;;9.34;99.51;97014.86;107707;1268;28749;-74
2022/01/01 10:38:17;;;;;;;2.60;1.60;;;;;;;9.30;99.75;97020.09;107649;1268;44501;-74
2022/01/01 10:40:49;;;;;;;3.00;2.10;;;;;;;9.28;99.98;97020.96;107629;1268;42679;-74
2022/01/01 10:43:21;;;;;;;3.70;2.00;;;;;;;9.27;100.00;97034.66;107654;1268;39471;-74
2022/01/01 10:45:53;;;;;;;3.80;2.60;;;;;;;9.25;100.00;97021.22;107714;1266;33314;-74
2022/01/01 10:48:28;;;;;;;4.40;2.80;;;;;;;9.24;100.00;97037.46;107675;1267;43129;-74
2022/01/01 10:50:59;;;;;;;3.10;2.50;;;;;;;9.23;100.00;97044.50;107735;1268;35986;-74
2022/01/01 10:53:32;;;;;;;4.60;3.10;;;;;;;9.22;100.00;97030.74;107732;1268;40804;-74
2022/01/01 10:56:06;;;;;;;5.40;2.90;;;;;;;9.24;100.00;97028.52;107753;1267;37880;-75
2022/01/01 10:58:38;;;;;;;6.10;3.80;;;;;;;9.26;100.00;97033.18;107670;1267;32005;-75
2022/01/01 11:01:11;;;;;;;6.60;4.00;;;;;;;9.29;100.00;97029.66;107638;1267;31006;-74
2022/01/01 11:03:45;;;;;;;6.10;3.10;;;;;;;9.32;100.00;97026.02;107671;1268;44008;-75
2022/01/01 11:06:18;;;;;;;6.80;3.30;;;;;;;9.36;99.79;97027.83;107688;1268;38516;-74
2022/01/01 11:08:50;;;;;;;7.60;4.10;;;;;;;9.38;99.52;97025.45;107560;1268;41764;-74
2022/01/01 11:11:21;;;;;;;4.70;3.40;;;;;;;9.38;99.44;97026.83;107613;1268;38725;-73
2022/01/01 11:13:53;;;;;;;5.20;2.80;;;;;;;9.38;99.23;97021.33;107594;1267;30326;-75
2022/01/01 11:16:25;;;;;;;6.50;3.30;;;;;;;9.37;99.26;97024.34;107593;1268;39930;-74
2022/01/01 11:18:57;;;;;;;4.10;2.70;;;;;;;9.36;99.23;97027.72;107553;1267;34208;-74
2022/01/01 11:21:28;;;;;;;3.40;2.20;;;;;;;9.34;99.34;97025.02;107581;1270;30986;-74
2022/01/01 11:24:00;;;;;;;4.20;2.90;;;;;;;9.30;99.65;97024.47;107610;1268;42500;-74
2022/01/01 11:26:32;;;;;;;3.50;2.40;;;;;;;9.23;99.98;97024.88;107692;1268;30718;-74
2022/01/01 11:29:04;;;;;;;4.10;3.10;;;;;;;9.17;100.00;97024.60;107557;1267;43148;-75
2022/01/01 11:31:37;;;;;;;2.50;2.10;;;;;;;9.13;100.00;97021.02;107631;1267;39398;-75
2022/01/01 11:34:10;;;;;;;2.20;1.60;;;;;;;9.10;100.00;97008.36;107620;1267;42164;-75
2022/01/01 11:36:41;;;;;;;4.30;1.60;;;;;;;9.09;100.00;97010.00;107521;1268;42819;-75
2022/01/01 11:39:16;;;;;;;3.20;2.40;;;;;;;9.14;100.00;97006.91;107570;1267;33056;-75
2022/01/01 11:41:47;;;;;;;3.00;2.10;;;;;;;9.16;100.00;97022.68;107628;1268;34831;-75
2022/01/01 11:44:36;;;;;;;3.10;1.80;;;;;;;9.14;100.00;97006.38;107574;1268;35640;-75
2022/01/01 11:47:14;;;;;;;2.90;2.10;;;;;;;9.14;100.00;97023.98;107569;1268;41950;-74
2022/01/01 11:49:46;;;;;;;6.60;3.10;;;;;;;9.08;100.00;97027.61;107406;1268;230715;-74